Time;durP1;ratioP1;P1;durP2;ratioP2;P2;SDS_P1;SDS_P2;PMS_P1;PMS_P2;Temp;Humidity;BMP_temperature;BMP_pressure;BME280_temperature;BME280_humidity;BME280_pressure;Samples;Min_cycle;Max_cycle;Signal;HPM_P1;HPM_P2
2023/01/02 00:01:26;;;;;;;992.73;158.00;;;10.80;99.90;;;;;;5048603;28;20234;-50
2023/01/02 00:03:55;;;;;;;1663.73;276.37;;;10.80;99.90;;;;;;5048358;28;20255;-50
2023/01/02 00:06:25;;;;;;;1492.07;289.70;;;10.80;99.90;;;;;;5048492;28;20229;-50
2023/01/02 00:08:53;;;;;;;1253.97;230.40;;;10.80;99.90;;;;;;5048007;28;20226;-50
2023/01/02 00:11:22;;;;;;;1598.33;338.50;;;10.80;99.90;;;;;;5048597;28;20237;-50
2023/01/02 00:13:50;;;;;;;1024.07;189.60;;;10.90;99.90;;;;;;5046930;28;20271;-51
2023/01/02 00:16:18;;;;;;;1568.03;291.43;;;10.90;99.90;;;;;;5047460;28;20233;-50
2023/01/02 00:18:46;;;;;;;1864.77;309.37;;;10.90;99.90;;;;;;5048392;28;20683;-51
2023/01/02 00:21:14;;;;;;;1505.00;281.27;;;11.00;99.90;;;;;;5048391;28;20637;-51
2023/01/02 00:23:43;;;;;;;964.43;184.30;;;11.00;99.90;;;;;;5048246;28;20300;-51
2023/01/02 00:26:12;;;;;;;1507.07;305.27;;;11.00;99.90;;;;;;5048150;28;20234;-51
2023/01/02 00:28:40;;;;;;;1029.70;221.13;;;11.00;99.90;;;;;;5048367;28;20906;-50
2023/01/02 00:31:09;;;;;;;1162.50;218.53;;;10.90;99.90;;;;;;5050583;28;20271;-50
2023/01/02 00:33:37;;;;;;;1701.57;332.17;;;10.90;99.90;;;;;;5051623;28;20292;-51
2023/01/02 00:36:07;;;;;;;1806.60;292.63;;;10.90;99.90;;;;;;5051741;28;20237;-51
2023/01/02 00:38:35;;;;;;;1999.90;334.60;;;10.90;99.90;;;;;;5051672;28;20198;-51
2023/01/02 00:41:07;;;;;;;1005.10;172.70;;;10.90;99.90;;;;;;5048726;28;20217;-51
2023/01/02 00:43:35;;;;;;;1815.10;326.73;;;10.90;99.90;;;;;;5044996;28;20271;-50
2023/01/02 00:46:04;;;;;;;1993.73;337.10;;;10.80;99.90;;;;;;5051132;28;20257;-51
2023/01/02 00:48:39;;;;;;;1728.33;311.17;;;10.80;99.90;;;;;;5051933;28;20217;-51
2023/01/02 00:51:07;;;;;;;1999.90;373.50;;;10.80;99.90;;;;;;5051658;28;20216;-51
2023/01/02 00:53:35;;;;;;;1999.90;431.50;;;10.80;99.90;;;;;;5051532;28;20652;-51
2023/01/02 00:56:04;;;;;;;1124.30;244.87;;;10.90;99.90;;;;;;5051564;28;20217;-52
2023/01/02 00:58:33;;;;;;;996.93;188.67;;;10.90;99.90;;;;;;5051434;28;20206;-51
2023/01/02 01:01:02;;;;;;;634.57;149.70;;;10.90;99.90;;;;;;5050552;28;20205;-51
2023/01/02 01:03:30;;;;;;;574.87;102.47;;;10.90;99.90;;;;;;5050553;28;20264;-50
2023/01/02 01:05:58;;;;;;;806.10;135.53;;;10.90;99.90;;;;;;5050803;28;20230;-51
2023/01/02 01:08:26;;;;;;;882.87;175.43;;;10.90;99.90;;;;;;5051026;28;20777;-52
2023/01/02 01:10:54;;;;;;;480.57;83.03;;;10.90;99.90;;;;;;5050923;28;20289;-50
2023/01/02 01:13:22;;;;;;;260.57;60.77;;;10.80;99.90;;;;;;5050733;28;20288;-51
2023/01/02 01:15:52;;;;;;;781.33;157.43;;;10.80;99.90;;;;;;5051055;28;20292;-50
2023/01/02 01:18:20;;;;;;;637.67;144.40;;;10.70;99.90;;;;;;5051376;28;20202;-50
2023/01/02 01:20:48;;;;;;;698.57;118.37;;;10.70;99.90;;;;;;5051249;28;20210;-51
2023/01/02 01:23:16;;;;;;;1999.90;474.23;;;10.60;99.90;;;;;;5050821;28;20279;-49
2023/01/02 01:25:44;;;;;;;683.87;134.37;;;10.60;99.90;;;;;;5050794;28;20226;-51
2023/01/02 01:28:12;;;;;;;1173.80;212.13;;;10.50;99.90;;;;;;5050628;28;20669;-51
2023/01/02 01:30:40;;;;;;;439.87;86.50;;;10.50;99.90;;;;;;5050773;28;20677;-51
2023/01/02 01:33:10;;;;;;;1717.13;267.93;;;10.50;99.90;;;;;;5050710;28;20285;-51
2023/01/02 01:35:38;;;;;;;940.50;170.53;;;10.50;99.90;;;;;;5050089;28;20237;-50
2023/01/02 01:38:06;;;;;;;1100.10;192.37;;;10.50;99.90;;;;;;5050264;28;20198;-51
2023/01/02 01:40:38;;;;;;;817.43;148.33;;;10.50;99.90;;;;;;5049721;28;20209;-51
2023/01/02 01:43:12;;;;;;;1525.33;247.53;;;10.50;99.90;;;;;;5049865;28;20237;-51
2023/01/02 01:45:42;;;;;;;1064.77;174.20;;;10.50;99.90;;;;;;5050482;28;20233;-50
2023/01/02 01:48:16;;;;;;;590.93;109.27;;;10.50;99.90;;;;;;5050662;28;20228;-51
2023/01/02 01:50:44;;;;;;;1698.60;285.60;;;10.50;99.90;;;;;;5050831;28;20213;-51
2023/01/02 01:53:16;;;;;;;1999.90;390.77;;;10.50;99.90;;;;;;5040495;28;20213;-52
2023/01/02 01:55:50;;;;;;;518.20;91.07;;;10.50;99.90;;;;;;5050877;28;20229;-51
2023/01/02 01:58:21;;;;;;;965.03;162.63;;;10.60;99.90;;;;;;5050292;28;20721;-51
2023/01/02 02:00:50;;;;;;;1639.60;310.87;;;10.50;99.90;;;;;;5050474;28;20293;-50
2023/01/02 02:03:23;;;;;;;914.30;162.87;;;10.60;99.90;;;;;;5049855;28;20225;-51
2023/01/02 02:05:51;;;;;;;1169.57;194.60;;;10.60;99.90;;;;;;5050635;28;20603;-50
2023/01/02 02:08:23;;;;;;;510.03;98.87;;;10.60;99.90;;;;;;5049862;28;20221;-50
2023/01/02 02:10:52;;;;;;;1999.90;548.80;;;10.70;99.90;;;;;;5038741;28;20287;-50
2023/01/02 02:13:21;;;;;;;1405.30;275.30;;;10.70;99.90;;;;;;5050141;28;20209;-51
2023/01/02 02:15:58;;;;;;;1595.30;302.00;;;10.70;99.90;;;;;;5049784;28;20718;-51
2023/01/02 02:18:41;;;;;;;1262.30;234.27;;;10.70;99.90;;;;;;5050600;28;20224;-50
2023/01/02 02:21:25;;;;;;;1999.90;443.17;;;10.70;99.90;;;;;;5049857;28;21572;-50
2023/01/02 02:24:21;;;;;;;1311.23;238.17;;;10.80;99.90;;;;;;5050092;28;20284;-51
2023/01/02 02:27:01;;;;;;;1999.90;530.90;;;10.80;99.90;;;;;;5036371;28;20312;-51
2023/01/02 02:29:59;;;;;;;947.23;190.33;;;10.70;99.90;;;;;;5050230;28;20226;-51
2023/01/02 02:32:36;;;;;;;1506.23;264.30;;;10.70;99.90;;;;;;5049785;28;20205;-51
2023/01/02 02:35:14;;;;;;;1393.93;238.20;;;10.70;99.90;;;;;;5048766;28;20249;-50
2023/01/02 02:37:52;;;;;;;1999.90;428.10;;;10.70;99.90;;;;;;5049258;28;20674;-51
2023/01/02 02:40:34;;;;;;;1310.47;227.60;;;10.70;99.90;;;;;;5048951;28;20710;-51
2023/01/02 02:43:10;;;;;;;1784.70;293.17;;;10.70;99.90;;;;;;5048808;28;20617;-51
2023/01/02 02:45:48;;;;;;;1999.90;524.73;;;10.70;99.90;;;;;;5050064;28;20276;-51
2023/01/02 02:48:23;;;;;;;1560.83;292.60;;;10.70;99.90;;;;;;5048421;28;20229;-49
2023/01/02 02:50:59;;;;;;;1999.20;438.30;;;10.70;99.90;;;;;;5049455;28;20212;-51
2023/01/02 02:53:32;;;;;;;1999.90;366.97;;;10.70;99.90;;;;;;5048280;28;20206;-50
2023/01/02 02:56:03;;;;;;;1999.90;351.23;;;10.70;99.90;;;;;;5049391;28;20225;-51
2023/01/02 02:58:33;;;;;;;1999.90;315.37;;;10.70;99.90;;;;;;5049446;28;20205;-50
2023/01/02 03:01:05;;;;;;;1597.23;281.30;;;10.70;99.90;;;;;;5049343;28;20666;-51
2023/01/02 03:03:34;;;;;;;1620.83;297.17;;;10.70;99.90;;;;;;5049635;28;20275;-51
2023/01/02 03:06:15;;;;;;;1392.93;248.73;;;10.70;99.90;;;;;;5049701;28;20279;-51
2023/01/02 03:08:51;;;;;;;493.60;105.47;;;10.60;99.90;;;;;;5049325;28;20225;-51
2023/01/02 03:11:20;;;;;;;1054.90;201.33;;;10.60;99.90;;;;;;5048999;28;20283;-50
2023/01/02 03:14:00;;;;;;;1059.80;208.47;;;10.60;99.90;;;;;;5049123;28;20267;-50
2023/01/02 03:16:35;;;;;;;758.10;151.90;;;10.60;99.90;;;;;;5049089;28;20316;-51
2023/01/02 03:19:07;;;;;;;1344.90;240.90;;;10.60;99.90;;;;;;5049332;28;20204;-50
2023/01/02 03:21:38;;;;;;;896.00;198.03;;;10.60;99.90;;;;;;5048976;28;20667;-51
2023/01/02 03:24:09;;;;;;;563.13;94.10;;;10.60;99.90;;;;;;5048447;28;20209;-51
2023/01/02 03:26:40;;;;;;;194.87;52.27;;;10.70;99.90;;;;;;5049007;28;20229;-51
2023/01/02 03:29:12;;;;;;;840.47;152.80;;;10.70;99.90;;;;;;5048562;28;20259;-51
2023/01/02 03:31:45;;;;;;;749.07;142.07;;;10.70;99.90;;;;;;5048845;28;20305;-51
2023/01/02 03:34:16;;;;;;;1536.83;303.40;;;10.80;99.90;;;;;;5049103;28;20267;-51
2023/01/02 03:36:48;;;;;;;731.13;134.17;;;10.80;99.90;;;;;;5048651;28;20742;-51
2023/01/02 03:39:19;;;;;;;1052.53;196.13;;;10.80;99.90;;;;;;5049321;28;20857;-51
2023/01/02 03:41:52;;;;;;;1067.60;187.03;;;10.80;99.90;;;;;;5048309;28;20235;-51
2023/01/02 03:44:24;;;;;;;1246.97;212.33;;;10.80;99.90;;;;;;5047887;28;20275;-51
2023/01/02 03:47:03;;;;;;;712.77;138.40;;;10.80;99.90;;;;;;5034714;28;20275;-50
2023/01/02 03:49:34;;;;;;;579.93;123.20;;;10.80;99.90;;;;;;5047798;28;20251;-50
2023/01/02 03:52:02;;;;;;;1229.73;259.47;;;10.90;99.90;;;;;;5048465;28;20243;-51
2023/01/02 03:54:31;;;;;;;255.20;76.30;;;10.90;99.90;;;;;;5045235;28;20249;-51
2023/01/02 03:57:06;;;;;;;937.90;173.50;;;10.90;99.90;;;;;;5038693;28;20583;-51
2023/01/02 03:59:42;;;;;;;1999.90;582.97;;;10.90;99.90;;;;;;5046833;28;20193;-51
2023/01/02 04:02:15;;;;;;;1427.17;204.10;;;10.90;99.90;;;;;;5048002;28;20264;-50
2023/01/02 04:04:49;;;;;;;1718.87;335.47;;;10.90;99.90;;;;;;5049075;28;20209;-51
2023/01/02 04:07:25;;;;;;;1183.63;261.13;;;10.90;99.90;;;;;;5052569;28;20300;-51
2023/01/02 04:09:53;;;;;;;443.37;102.43;;;10.90;99.90;;;;;;5052195;28;20319;-51
2023/01/02 04:12:23;;;;;;;1169.10;220.80;;;10.90;99.90;;;;;;5051954;28;20304;-50
2023/01/02 04:14:56;;;;;;;874.10;166.63;;;10.90;99.90;;;;;;5052061;28;20339;-51
2023/01/02 04:17:28;;;;;;;1999.90;374.90;;;11.00;99.90;;;;;;5052384;28;20210;-51
2023/01/02 04:20:02;;;;;;;1190.47;232.33;;;10.90;99.90;;;;;;5042059;28;20408;-51
2023/01/02 04:22:33;;;;;;;1190.53;243.87;;;10.90;99.90;;;;;;5051498;28;20244;-50
2023/01/02 04:25:07;;;;;;;1030.70;216.47;;;10.90;99.90;;;;;;5052151;28;20780;-51
2023/01/02 04:27:41;;;;;;;1785.20;313.57;;;10.90;99.90;;;;;;5052005;28;20213;-51
2023/01/02 04:30:09;;;;;;;1959.20;336.83;;;10.90;99.90;;;;;;5039038;28;20321;-51
2023/01/02 04:32:42;;;;;;;1999.90;454.40;;;10.90;99.90;;;;;;5050580;28;20268;-51
2023/01/02 04:35:13;;;;;;;1773.40;347.37;;;10.90;99.90;;;;;;5052001;28;20307;-51
2023/01/02 04:37:42;;;;;;;1999.90;377.40;;;10.90;99.90;;;;;;5052042;28;20292;-51
2023/01/02 04:40:15;;;;;;;1914.97;334.70;;;10.90;99.90;;;;;;5051944;28;20231;-51
2023/01/02 04:42:43;;;;;;;1484.70;243.10;;;10.90;99.90;;;;;;5051266;28;20259;-50
2023/01/02 04:45:12;;;;;;;627.80;130.10;;;10.90;99.90;;;;;;5051356;28;20217;-50
2023/01/02 04:47:42;;;;;;;1835.30;340.90;;;10.90;99.90;;;;;;5051739;28;20205;-51
2023/01/02 04:50:10;;;;;;;1999.90;411.73;;;10.90;99.90;;;;;;5051687;28;20288;-50
2023/01/02 04:52:38;;;;;;;1334.83;271.20;;;10.90;99.90;;;;;;5051426;28;20297;-51
2023/01/02 04:55:08;;;;;;;830.50;139.77;;;10.90;99.90;;;;;;5051508;28;20726;-51
2023/01/02 04:57:37;;;;;;;1631.50;322.53;;;10.90;99.90;;;;;;5051882;28;20248;-51
2023/01/02 05:00:07;;;;;;;1697.90;346.93;;;10.90;99.90;;;;;;5051246;28;20206;-51
2023/01/02 05:02:36;;;;;;;955.80;184.23;;;10.80;99.90;;;;;;5051242;28;20233;-50
2023/01/02 05:05:08;;;;;;;791.53;156.73;;;10.80;99.90;;;;;;5051741;28;20233;-52
2023/01/02 05:07:36;;;;;;;1134.23;208.53;;;10.70;99.90;;;;;;5051058;28;20201;-50
2023/01/02 05:10:05;;;;;;;1752.20;318.87;;;10.70;99.90;;;;;;5046325;28;20253;-51
2023/01/02 05:12:34;;;;;;;838.03;171.03;;;10.70;99.90;;;;;;5049033;28;20241;-50
2023/01/02 05:15:03;;;;;;;1486.80;305.93;;;10.70;99.90;;;;;;5050499;28;20283;-51
2023/01/02 05:17:35;;;;;;;1283.07;245.33;;;10.70;99.90;;;;;;5048814;28;20921;-50
2023/01/02 05:20:06;;;;;;;903.20;166.37;;;10.70;99.90;;;;;;5050751;28;20229;-50
2023/01/02 05:25:20;;;;;;;1999.90;288.03;;;10.60;99.90;;;;;;5049610;28;20259;-51
2023/01/02 05:27:52;;;;;;;1999.90;456.23;;;10.60;99.90;;;;;;5050557;28;20248;-51
2023/01/02 05:30:20;;;;;;;1694.37;300.03;;;10.60;99.90;;;;;;5049901;28;20229;-51
2023/01/02 05:32:48;;;;;;;1440.63;279.43;;;10.60;99.90;;;;;;5050460;28;20256;-51
2023/01/02 05:35:18;;;;;;;1983.20;379.23;;;10.50;99.90;;;;;;5050319;28;20265;-51
2023/01/02 05:37:46;;;;;;;1999.90;343.70;;;10.50;99.90;;;;;;5048594;28;20267;-50
2023/01/02 05:40:15;;;;;;;1086.40;206.53;;;10.50;99.90;;;;;;5049806;28;20271;-50
2023/01/02 05:42:43;;;;;;;1570.87;283.77;;;10.50;99.90;;;;;;5050207;28;20908;-49
2023/01/02 05:45:11;;;;;;;1245.00;209.00;;;10.50;99.90;;;;;;5051025;28;20257;-50
2023/01/02 05:47:39;;;;;;;1819.60;395.77;;;10.50;99.90;;;;;;5049944;28;20324;-51
2023/01/02 05:50:08;;;;;;;1116.47;212.27;;;10.50;99.90;;;;;;5050786;28;20320;-52
2023/01/02 05:52:37;;;;;;;944.47;174.13;;;10.40;99.90;;;;;;5050321;28;20233;-51
2023/01/02 05:55:12;;;;;;;1968.53;280.97;;;10.50;99.90;;;;;;5050791;28;20601;-51
2023/01/02 05:57:40;;;;;;;1999.90;456.13;;;10.50;99.90;;;;;;5050392;28;20213;-51
2023/01/02 06:00:10;;;;;;;1286.10;187.73;;;10.50;99.90;;;;;;5050316;28;20890;-50
2023/01/02 06:02:38;;;;;;;1608.57;333.83;;;10.50;99.90;;;;;;5050430;28;20239;-51
2023/01/02 06:05:07;;;;;;;1999.90;366.30;;;10.50;99.90;;;;;;5050553;28;20257;-51
2023/01/02 06:07:36;;;;;;;1443.20;270.27;;;10.50;99.90;;;;;;5036951;28;20902;-51
2023/01/02 06:10:05;;;;;;;688.53;114.63;;;10.50;99.90;;;;;;5050253;28;20221;-51
2023/01/02 06:12:33;;;;;;;1487.77;247.97;;;10.50;99.90;;;;;;5049687;28;21006;-51
2023/01/02 06:15:01;;;;;;;869.93;172.40;;;10.50;99.90;;;;;;5049557;28;20264;-50
2023/01/02 06:17:29;;;;;;;1159.93;213.77;;;10.40;99.90;;;;;;5048399;28;20316;-51
2023/01/02 06:19:58;;;;;;;1470.80;267.67;;;10.40;99.90;;;;;;5047510;28;20209;-50
2023/01/02 06:22:26;;;;;;;1647.70;286.13;;;10.40;99.90;;;;;;5049446;28;20753;-51
2023/01/02 06:24:55;;;;;;;1724.27;320.63;;;10.40;99.90;;;;;;5050313;28;20253;-50
2023/01/02 06:27:23;;;;;;;1273.67;253.97;;;10.40;99.90;;;;;;5049621;28;20209;-52
2023/01/02 06:29:51;;;;;;;1715.90;283.23;;;10.40;99.90;;;;;;5049844;28;20240;-51
2023/01/02 06:32:19;;;;;;;1999.90;495.93;;;10.40;99.90;;;;;;5049912;28;20209;-50
2023/01/02 06:34:47;;;;;;;557.20;93.20;;;10.30;99.90;;;;;;5050050;28;20241;-51
2023/01/02 06:37:15;;;;;;;817.83;146.60;;;10.30;99.90;;;;;;5049723;28;20268;-51
2023/01/02 06:39:43;;;;;;;840.83;188.67;;;10.40;99.90;;;;;;5049587;28;20206;-51
2023/01/02 06:42:13;;;;;;;1275.20;248.30;;;10.40;99.90;;;;;;5049583;28;20671;-50
2023/01/02 06:44:41;;;;;;;1228.90;239.93;;;10.30;99.90;;;;;;5049636;28;20213;-51
2023/01/02 06:47:09;;;;;;;1316.13;228.40;;;10.30;99.90;;;;;;5049919;28;20686;-50
2023/01/02 06:49:37;;;;;;;1999.90;381.73;;;10.30;99.90;;;;;;5049410;28;20236;-50
2023/01/02 06:52:05;;;;;;;1794.37;358.33;;;10.30;99.90;;;;;;5049865;28;20248;-50
2023/01/02 06:54:33;;;;;;;1266.43;205.00;;;10.30;99.90;;;;;;5039512;28;20217;-50
2023/01/02 06:57:01;;;;;;;1999.90;358.57;;;10.30;99.90;;;;;;5042639;28;20256;-50
2023/01/02 06:59:31;;;;;;;1189.13;235.10;;;10.30;99.90;;;;;;5049556;28;20279;-50
2023/01/02 07:01:59;;;;;;;879.50;171.27;;;10.30;99.90;;;;;;5041022;28;20223;-51
2023/01/02 07:04:27;;;;;;;1592.90;296.90;;;10.30;99.90;;;;;;5049562;28;20270;-50
2023/01/02 07:06:55;;;;;;;1016.67;232.43;;;10.30;99.90;;;;;;5049255;28;20225;-52
2023/01/02 07:09:23;;;;;;;1401.87;332.80;;;10.40;99.90;;;;;;5045649;28;20210;-51
2023/01/02 07:11:52;;;;;;;1999.90;644.83;;;10.40;99.90;;;;;;5034886;28;20265;-51
2023/01/02 07:14:20;;;;;;;1733.17;345.00;;;10.40;99.90;;;;;;5049028;28;20557;-52
2023/01/02 07:16:50;;;;;;;931.57;165.23;;;10.50;99.90;;;;;;5048533;28;20259;-51
2023/01/02 07:19:18;;;;;;;1092.17;251.37;;;10.50;99.90;;;;;;5048762;28;20210;-51
2023/01/02 07:21:47;;;;;;;899.80;185.10;;;10.50;99.90;;;;;;5048496;28;20198;-51
2023/01/02 07:24:15;;;;;;;1763.67;321.63;;;10.60;99.90;;;;;;5048853;28;20260;-51
2023/01/02 07:26:43;;;;;;;1374.13;271.37;;;10.60;99.90;;;;;;5040609;28;20258;-51
2023/01/02 07:29:11;;;;;;;1999.90;440.17;;;10.60;99.90;;;;;;5041890;28;20289;-51
2023/01/02 07:31:39;;;;;;;1322.50;221.93;;;10.60;99.90;;;;;;5042849;28;20254;-50
2023/01/02 07:34:09;;;;;;;1187.00;230.07;;;10.60;99.90;;;;;;5039113;28;20256;-51
2023/01/02 07:36:37;;;;;;;1630.20;333.50;;;10.60;99.90;;;;;;5036297;28;20599;-50
2023/01/02 07:39:05;;;;;;;1175.30;213.30;;;10.60;99.90;;;;;;5035657;28;20275;-51
2023/01/02 07:41:34;;;;;;;1999.90;498.10;;;10.60;99.90;;;;;;5054037;28;20553;-51
2023/01/02 07:44:03;;;;;;;1999.90;540.00;;;10.60;99.90;;;;;;5054793;28;20209;-51
2023/01/02 07:46:31;;;;;;;1999.90;414.43;;;10.60;99.90;;;;;;5054483;28;20259;-51
2023/01/02 07:48:59;;;;;;;1999.90;385.47;;;10.60;99.90;;;;;;5054720;28;20641;-51
2023/01/02 07:51:28;;;;;;;1446.97;286.87;;;10.70;99.90;;;;;;5055069;28;20690;-51
2023/01/02 07:53:56;;;;;;;1999.90;486.63;;;10.70;99.90;;;;;;5055271;28;20237;-50
2023/01/02 07:56:25;;;;;;;1999.90;434.03;;;10.80;99.90;;;;;;5055196;28;20225;-51
2023/01/02 07:58:53;;;;;;;1999.90;452.80;;;10.80;99.90;;;;;;5055566;28;20622;-51
2023/01/02 08:01:21;;;;;;;1999.90;418.73;;;10.80;99.90;;;;;;5055130;28;20197;-51
2023/01/02 08:03:49;;;;;;;1760.13;299.50;;;10.80;99.90;;;;;;5054891;28;20207;-51
2023/01/02 08:06:19;;;;;;;1533.73;308.30;;;10.80;99.90;;;;;;5054822;28;20312;-51
2023/01/02 08:08:48;;;;;;;1703.23;334.90;;;10.80;99.90;;;;;;5055509;28;20653;-51
2023/01/02 08:11:18;;;;;;;1999.90;413.53;;;10.80;99.90;;;;;;5054901;28;20225;-50
2023/01/02 08:13:47;;;;;;;1999.90;481.87;;;10.90;99.90;;;;;;5049761;28;20288;-51
2023/01/02 08:16:17;;;;;;;1999.90;452.73;;;10.80;99.90;;;;;;5048533;28;20278;-50
2023/01/02 08:18:46;;;;;;;1057.07;180.03;;;10.90;99.90;;;;;;5049116;28;20209;-51
2023/01/02 08:21:14;;;;;;;1999.90;462.77;;;10.90;99.90;;;;;;5051135;28;20252;-50
2023/01/02 08:23:42;;;;;;;1999.90;542.30;;;10.90;99.90;;;;;;5046735;28;20422;-49
2023/01/02 08:26:12;;;;;;;1999.90;432.17;;;11.00;99.90;;;;;;5047596;28;20221;-51
2023/01/02 08:28:41;;;;;;;1669.87;409.87;;;11.00;99.90;;;;;;5048692;28;20212;-51
2023/01/02 08:31:10;;;;;;;1908.37;410.77;;;11.00;99.90;;;;;;5045778;28;20907;-51
2023/01/02 08:33:38;;;;;;;1999.90;467.33;;;11.00;99.90;;;;;;5050389;28;20209;-51
2023/01/02 08:36:08;;;;;;;1794.70;335.70;;;11.00;99.90;;;;;;5048935;28;20275;-51
2023/01/02 08:38:36;;;;;;;1176.17;247.73;;;11.00;99.90;;;;;;5049317;28;20296;-52
2023/01/02 08:41:04;;;;;;;1999.90;409.33;;;11.00;99.90;;;;;;5048328;28;20663;-51
2023/01/02 08:43:35;;;;;;;1533.53;319.73;;;11.00;99.90;;;;;;5048685;28;20206;-50
2023/01/02 08:46:05;;;;;;;1333.20;242.73;;;11.00;99.90;;;;;;5044936;28;20283;-51
2023/01/02 08:48:34;;;;;;;1999.90;715.03;;;11.10;99.90;;;;;;5050512;28;20214;-50
2023/01/02 08:51:02;;;;;;;1752.37;362.47;;;11.00;99.90;;;;;;5041332;28;20209;-50
2023/01/02 08:53:30;;;;;;;1999.90;560.70;;;11.00;99.90;;;;;;5040515;28;20295;-50
2023/01/02 08:56:17;;;;;;;1999.90;499.03;;;11.00;99.90;;;;;;5045480;28;20227;-51
2023/01/02 08:58:50;;;;;;;1536.47;350.90;;;11.00;99.90;;;;;;5040753;28;20206;-51
2023/01/02 09:01:20;;;;;;;1999.90;525.37;;;11.00;99.90;;;;;;5051006;28;20750;-51
2023/01/02 09:03:48;;;;;;;1999.90;550.07;;;11.00;99.90;;;;;;5049424;28;20232;-50
2023/01/02 09:06:17;;;;;;;1999.90;665.73;;;11.00;99.90;;;;;;5045048;28;20252;-51
2023/01/02 09:08:51;;;;;;;1999.90;535.07;;;11.00;99.90;;;;;;5051359;28;20263;-51
2023/01/02 09:11:21;;;;;;;1936.70;325.30;;;11.00;99.90;;;;;;5051239;28;20206;-51
2023/01/02 09:13:51;;;;;;;1896.87;442.57;;;11.00;99.90;;;;;;5050762;28;20206;-51
2023/01/02 09:16:19;;;;;;;1999.90;414.10;;;11.10;99.90;;;;;;5050794;28;20303;-50
2023/01/02 09:18:48;;;;;;;1999.90;639.00;;;11.10;99.90;;;;;;5045293;28;20198;-50
2023/01/02 09:21:16;;;;;;;1999.90;622.60;;;11.10;99.90;;;;;;5045313;28;20667;-51
2023/01/02 09:23:44;;;;;;;1999.90;576.60;;;11.10;99.90;;;;;;5049138;28;20206;-51
2023/01/02 09:26:13;;;;;;;1999.90;762.90;;;11.10;99.90;;;;;;5051056;28;20229;-51
2023/01/02 09:28:41;;;;;;;1999.90;472.33;;;11.20;99.90;;;;;;5050920;28;20254;-50
2023/01/02 09:31:13;;;;;;;1641.23;387.23;;;11.20;99.90;;;;;;5049760;28;20202;-51
2023/01/02 09:33:42;;;;;;;1999.90;423.50;;;11.30;99.90;;;;;;5049040;28;20233;-51
2023/01/02 09:36:13;;;;;;;1999.90;617.23;;;11.30;99.90;;;;;;5045355;28;20233;-50
2023/01/02 09:38:42;;;;;;;1265.83;314.20;;;11.30;99.90;;;;;;5042196;28;20206;-51
2023/01/02 09:41:22;;;;;;;1999.90;621.10;;;11.40;99.90;;;;;;5047653;28;20788;-50
2023/01/02 09:43:53;;;;;;;1999.90;580.10;;;11.40;99.90;;;;;;5043100;28;20202;-51
2023/01/02 09:46:29;;;;;;;1999.90;621.80;;;11.40;99.90;;;;;;5041154;28;20279;-51
2023/01/02 09:48:59;;;;;;;1999.90;491.60;;;11.40;99.90;;;;;;5047018;28;20209;-51
2023/01/02 09:51:28;;;;;;;1505.23;344.83;;;11.50;99.90;;;;;;5043716;28;20198;-51
2023/01/02 09:53:56;;;;;;;1999.90;415.13;;;11.50;99.90;;;;;;5043520;28;20753;-50
2023/01/02 09:56:32;;;;;;;1999.90;419.70;;;11.50;99.90;;;;;;5043383;28;20941;-51
2023/01/02 09:59:09;;;;;;;1999.90;446.33;;;11.40;99.90;;;;;;5044812;28;20679;-51
2023/01/02 10:01:52;;;;;;;1999.90;454.27;;;11.50;99.90;;;;;;5043320;28;20213;-51
2023/01/02 10:04:31;;;;;;;1999.90;386.40;;;11.40;99.90;;;;;;5043293;28;20194;-51
2023/01/02 10:07:08;;;;;;;1999.90;619.10;;;11.40;99.90;;;;;;5048284;28;20268;-51
2023/01/02 10:09:46;;;;;;;1999.90;603.40;;;11.40;99.90;;;;;;5050059;28;20225;-51
2023/01/02 10:12:20;;;;;;;1999.90;591.13;;;11.40;99.90;;;;;;5050109;28;20270;-51
2023/01/02 10:14:55;;;;;;;1186.90;225.63;;;11.40;99.90;;;;;;5043726;28;20245;-51
2023/01/02 10:17:27;;;;;;;1687.27;304.37;;;11.50;99.90;;;;;;5036819;28;20210;-51
2023/01/02 10:20:00;;;;;;;1999.90;760.47;;;11.50;99.90;;;;;;5046288;28;20730;-52
2023/01/02 10:22:36;;;;;;;1999.90;502.73;;;11.50;99.90;;;;;;5040314;28;20298;-51
2023/01/02 10:25:11;;;;;;;1999.90;377.60;;;11.50;99.90;;;;;;5044033;28;20236;-52
2023/01/02 10:27:43;;;;;;;1999.90;682.67;;;11.50;99.90;;;;;;5047718;28;20213;-50
2023/01/02 10:30:18;;;;;;;1895.43;355.93;;;11.50;99.90;;;;;;5049720;28;20321;-52
2023/01/02 10:32:52;;;;;;;1999.90;471.33;;;11.50;99.90;;;;;;5045856;28;20233;-52
2023/01/02 10:35:36;;;;;;;1999.90;459.87;;;11.50;99.90;;;;;;5045809;28;20236;-50
2023/01/02 10:38:05;;;;;;;1999.90;603.73;;;11.50;99.90;;;;;;5042221;28;20209;-51
2023/01/02 10:40:33;;;;;;;1981.33;397.73;;;11.50;99.90;;;;;;5045163;28;20244;-50
2023/01/02 10:43:02;;;;;;;1999.90;481.07;;;11.50;99.90;;;;;;5043699;28;20599;-51
2023/01/02 10:45:30;;;;;;;1999.90;458.80;;;11.50;99.90;;;;;;5040137;28;20271;-51
2023/01/02 10:48:00;;;;;;;1999.90;453.23;;;11.60;99.90;;;;;;5040981;28;20217;-51
2023/01/02 10:50:31;;;;;;;1999.90;714.20;;;11.50;99.90;;;;;;5043302;28;20815;-51
2023/01/02 10:53:09;;;;;;;1999.90;469.97;;;11.50;99.90;;;;;;5039696;28;20768;-52
2023/01/02 10:55:40;;;;;;;1999.90;601.20;;;11.60;99.90;;;;;;5041286;28;20278;-51
2023/01/02 10:58:17;;;;;;;1999.90;718.00;;;11.50;99.90;;;;;;5045485;28;20300;-52
2023/01/02 11:00:46;;;;;;;1999.90;732.27;;;11.60;99.90;;;;;;5044409;28;20776;-51
2023/01/02 11:03:21;;;;;;;1999.90;516.70;;;11.60;99.90;;;;;;5042454;28;20226;-51
2023/01/02 11:05:51;;;;;;;1999.90;662.43;;;11.60;99.90;;;;;;5046714;28;20271;-52
2023/01/02 11:08:20;;;;;;;1999.90;610.03;;;11.70;99.90;;;;;;5046724;28;20222;-51
2023/01/02 11:10:50;;;;;;;1999.90;658.93;;;11.70;99.90;;;;;;5046841;28;20229;-51
2023/01/02 11:13:20;;;;;;;1999.90;655.40;;;11.70;99.90;;;;;;5047065;28;20647;-51
2023/01/02 11:15:50;;;;;;;1999.90;587.57;;;11.70;99.90;;;;;;5038467;28;20720;-51
2023/01/02 11:18:24;;;;;;;1999.90;519.60;;;11.70;99.90;;;;;;5049326;28;20214;-51
2023/01/02 11:20:54;;;;;;;1999.90;565.33;;;11.70;99.90;;;;;;5048750;28;20631;-51
2023/01/02 11:23:25;;;;;;;1999.90;577.67;;;11.70;99.90;;;;;;5048251;28;20251;-51
2023/01/02 11:25:54;;;;;;;1999.90;601.23;;;11.70;99.90;;;;;;5048421;28;20229;-52
2023/01/02 11:28:26;;;;;;;1999.90;499.07;;;11.70;99.90;;;;;;5042111;28;20202;-51
2023/01/02 11:30:59;;;;;;;1999.90;438.17;;;11.70;99.90;;;;;;5046522;28;20293;-51
2023/01/02 11:33:31;;;;;;;1999.90;666.67;;;11.70;99.90;;;;;;5038793;28;20579;-51
2023/01/02 11:36:13;;;;;;;1999.90;478.73;;;11.70;99.90;;;;;;5043457;28;21028;-51
2023/01/02 11:38:44;;;;;;;936.17;182.03;;;11.70;99.90;;;;;;5040467;28;20209;-51
2023/01/02 11:43:47;;;;;;;1783.60;283.17;;;11.70;99.90;;;;;;5039607;28;20236;-51
2023/01/02 11:44:22;;;;;;;1750.43;272.23;;;11.70;99.90;;;;;;5040904;28;20240;-51
2023/01/02 11:46:51;;;;;;;1999.90;460.03;;;11.60;99.90;;;;;;5040208;28;20230;-51
2023/01/02 11:49:25;;;;;;;1946.30;480.67;;;11.70;99.90;;;;;;5045193;28;20236;-51
2023/01/02 11:51:56;;;;;;;713.60;153.00;;;11.70;99.90;;;;;;5046887;28;20208;-51
2023/01/02 11:54:30;;;;;;;1470.53;321.33;;;11.80;99.90;;;;;;5048303;28;20305;-51
2023/01/02 11:56:59;;;;;;;1999.90;366.63;;;11.80;99.90;;;;;;5047951;28;20307;-51
2023/01/02 11:59:34;;;;;;;1148.50;237.57;;;11.80;99.90;;;;;;5048056;28;20237;-51
2023/01/02 12:02:09;;;;;;;1999.90;582.47;;;11.80;99.90;;;;;;5043210;28;20308;-51
2023/01/02 12:04:39;;;;;;;1999.90;450.27;;;11.90;99.90;;;;;;5048208;28;20232;-51
2023/01/02 12:07:22;;;;;;;1104.40;206.53;;;11.80;99.90;;;;;;5048567;28;20213;-51
2023/01/02 12:10:01;;;;;;;1999.90;610.30;;;11.90;99.90;;;;;;5048024;28;20217;-51
2023/01/02 12:12:48;;;;;;;1999.90;666.23;;;11.90;99.90;;;;;;5048005;28;20240;-51
2023/01/02 12:15:49;;;;;;;1999.90;509.30;;;11.80;99.90;;;;;;5043667;28;20703;-51
2023/01/02 12:18:29;;;;;;;1999.90;599.60;;;11.80;99.90;;;;;;5031488;28;20213;-51
2023/01/02 12:21:06;;;;;;;1999.90;593.17;;;11.80;99.90;;;;;;5046128;28;20205;-51
2023/01/02 12:23:49;;;;;;;1999.90;673.37;;;11.80;99.90;;;;;;5046837;28;20275;-50